Sparks, Texas
Current Conditions -  °F | °C
As of 6:58 PM on Friday 28 Nov 2014 (Local Time) from KGRK Reporting Station
Clear Clear  
Wind Chill: 58°   Ceiling: Unl
Heat Index: 58°   Visibility: 10mi
Dew Point: 46°   Wind: 7mph
Humidity: 63%   Direction: 180°S
Pressure: 30.08"   Gusts: NA
Location:  30.8644°N, 97.3623°W
Report Text: KGRK 290058Z AUTO 18006KT 10SM CLR 15/08 A3008 RMK AO2 VIS 1 3/4 RWY33 SLP186 T01470078
Loading
Personal Weather Stations






























Interactive Weather Map New forecast layout! Learn more

10-Day Weather Forecast

Advertisements
Track Severe Weather on mobile